createdAt,value
2023-05-15T00:03:28.310Z,7.50
2023-05-15T00:07:32.246Z,7.50
2023-05-15T00:11:35.465Z,7.60
2023-05-15T00:15:40.553Z,7.60
2023-05-15T00:19:43.963Z,7.60
2023-05-15T00:23:47.940Z,7.60
2023-05-15T00:27:51.326Z,7.60
2023-05-15T00:31:57.325Z,7.60
2023-05-15T00:36:02.069Z,7.60
2023-05-15T00:40:11.018Z,7.60
2023-05-15T00:44:16.694Z,7.70
2023-05-15T00:48:23.020Z,7.70
2023-05-15T00:52:28.008Z,7.70
2023-05-15T00:56:33.424Z,7.60
2023-05-15T01:00:37.595Z,7.60
2023-05-15T01:04:42.793Z,7.60
2023-05-15T01:08:48.249Z,7.60
2023-05-15T01:12:55.573Z,7.60
2023-05-15T01:16:59.497Z,7.60
2023-05-15T01:21:40.906Z,7.70
2023-05-15T01:26:28.450Z,7.70
2023-05-15T01:30:37.419Z,7.60
2023-05-15T01:34:48.811Z,7.60
2023-05-15T01:38:55.934Z,7.60
2023-05-15T01:43:07.846Z,7.60
2023-05-15T01:47:15.837Z,7.60
2023-05-15T01:51:20.708Z,7.60
2023-05-15T01:55:26.964Z,7.60
2023-05-15T01:59:31.578Z,7.60
2023-05-15T02:03:37.517Z,7.60
2023-05-15T02:07:43.229Z,7.50
2023-05-15T02:11:46.909Z,7.50
2023-05-15T02:15:50.480Z,7.50
2023-05-15T02:19:55.521Z,7.50
2023-05-15T02:23:58.921Z,7.40
2023-05-15T02:28:05.073Z,7.50
2023-05-15T02:32:16.181Z,7.40
2023-05-15T02:36:25.056Z,7.40
2023-05-15T02:40:30.762Z,7.40
2023-05-15T02:44:37.453Z,7.50
2023-05-15T02:48:42.248Z,7.50
2023-05-15T02:52:49.988Z,7.40
2023-05-15T02:56:53.392Z,7.40
2023-05-15T03:00:57.364Z,7.40
2023-05-15T03:05:01.035Z,7.40
2023-05-15T03:09:06.384Z,7.30
2023-05-15T03:13:12.411Z,7.30
2023-05-15T03:17:16.126Z,7.30
2023-05-15T03:21:20.199Z,7.30
2023-05-15T03:25:25.237Z,7.30
2023-05-15T03:29:28.910Z,7.30
2023-05-15T03:33:32.713Z,7.30
2023-05-15T03:37:36.413Z,7.30
2023-05-15T03:41:41.135Z,7.30
2023-05-15T03:45:45.226Z,7.30
2023-05-15T03:49:48.863Z,7.30
2023-05-15T03:53:52.538Z,7.30
2023-05-15T03:58:01.194Z,7.40
2023-05-15T04:02:05.964Z,7.40
2023-05-15T04:06:09.682Z,7.40
2023-05-15T04:10:12.972Z,7.50
2023-05-15T04:14:18.174Z,7.50
2023-05-15T04:18:22.022Z,7.60
2023-05-15T04:22:25.729Z,7.60
2023-05-15T04:26:29.259Z,7.60
2023-05-15T04:30:34.366Z,7.70
2023-05-15T04:34:37.779Z,7.70
2023-05-15T04:38:41.349Z,7.70
2023-05-15T04:42:44.838Z,7.80
2023-05-15T04:46:49.671Z,7.80
2023-05-15T04:50:53.154Z,7.90
2023-05-15T04:54:56.653Z,7.90
2023-05-15T04:59:06.513Z,8.00
2023-05-15T05:03:11.659Z,8.10
2023-05-15T05:07:15.344Z,8.10
2023-05-15T05:11:18.972Z,8.10
2023-05-15T05:15:22.552Z,8.20
2023-05-15T05:19:29.371Z,8.20
2023-05-15T05:23:32.793Z,8.30
2023-05-15T05:27:40.382Z,8.30
2023-05-15T05:31:44.034Z,8.30
2023-05-15T05:35:49.958Z,8.30
2023-05-15T05:39:53.267Z,8.30
2023-05-15T05:43:56.960Z,8.30
2023-05-15T05:48:00.498Z,8.30
2023-05-15T05:52:10.444Z,8.30
2023-05-15T05:56:13.983Z,8.40
2023-05-15T06:00:19.619Z,8.40
2023-05-15T06:04:22.973Z,8.50
2023-05-15T06:08:27.797Z,8.60
2023-05-15T06:12:31.643Z,8.70
2023-05-15T06:16:35.033Z,8.80
2023-05-15T06:20:44.746Z,8.90
2023-05-15T06:24:49.601Z,9.00
2023-05-15T06:28:54.124Z,9.20
2023-05-15T06:32:57.686Z,9.50
2023-05-15T06:37:02.300Z,9.70
2023-05-15T06:41:07.360Z,9.70
2023-05-15T06:45:11.712Z,10.00
2023-05-15T06:49:15.065Z,10.20
2023-05-15T06:53:21.062Z,10.10
2023-05-15T06:57:26.480Z,10.40
2023-05-15T07:01:30.238Z,10.50
2023-05-15T07:05:33.816Z,10.50
2023-05-15T07:09:37.202Z,10.60
2023-05-15T07:13:42.200Z,10.60
2023-05-15T07:17:45.753Z,10.60
2023-05-15T07:21:51.455Z,10.40
2023-05-15T07:25:56.189Z,10.40
2023-05-15T07:30:04.132Z,10.40
2023-05-15T07:34:07.627Z,10.60
2023-05-15T07:38:11.435Z,10.90
2023-05-15T07:42:14.985Z,10.70
2023-05-15T07:46:19.928Z,10.50
2023-05-15T07:50:23.566Z,10.50
2023-05-15T07:54:27.425Z,10.40
2023-05-15T07:58:30.724Z,10.20
2023-05-15T08:02:35.656Z,10.20
2023-05-15T08:06:39.495Z,10.60
2023-05-15T08:10:43.394Z,11.00
2023-05-15T08:14:50.944Z,11.40
2023-05-15T08:19:01.742Z,11.60
2023-05-15T08:23:05.759Z,11.80
2023-05-15T08:27:10.440Z,11.90
2023-05-15T08:31:13.925Z,12.20
2023-05-15T08:35:22.982Z,12.10
2023-05-15T08:39:27.175Z,12.10
2023-05-15T08:43:33.232Z,12.20
2023-05-15T08:47:40.561Z,11.90
2023-05-15T08:51:48.284Z,11.80
2023-05-15T08:55:52.399Z,12.00
2023-05-15T08:59:56.720Z,12.10
2023-05-15T09:04:00.306Z,12.20
2023-05-15T09:08:07.770Z,12.50
2023-05-15T09:12:15.168Z,13.00
2023-05-15T09:16:18.758Z,13.20
2023-05-15T09:20:29.832Z,13.10
2023-05-15T09:24:39.429Z,12.90
2023-05-15T09:28:43.007Z,12.70
2023-05-15T09:32:46.862Z,12.70
2023-05-15T09:36:50.275Z,12.90
2023-05-15T09:41:04.167Z,13.00
2023-05-15T09:45:18.272Z,13.20
2023-05-15T09:49:21.945Z,13.10
2023-05-15T09:53:25.985Z,13.10
2023-05-15T09:57:31.302Z,13.10
2023-05-15T10:01:37.967Z,12.90
2023-05-15T10:05:43.006Z,12.80
2023-05-15T10:09:47.192Z,12.60
2023-05-15T10:13:52.182Z,12.60
2023-05-15T10:17:55.831Z,12.70
2023-05-15T10:22:01.140Z,13.10
2023-05-15T10:26:09.695Z,13.70
2023-05-15T10:30:17.231Z,13.70
2023-05-15T10:34:21.512Z,13.50
2023-05-15T10:38:26.203Z,13.10
2023-05-15T10:42:30.861Z,12.90
2023-05-15T10:46:37.227Z,12.90
2023-05-15T10:50:40.910Z,12.70
2023-05-15T10:54:44.426Z,12.60
2023-05-15T10:58:49.552Z,12.40
2023-05-15T11:02:57.126Z,12.40
2023-05-15T11:07:14.272Z,12.80
2023-05-15T11:11:50.930Z,13.20
2023-05-15T11:15:55.190Z,13.70
2023-05-15T11:20:00.984Z,14.10
2023-05-15T11:24:08.264Z,13.80
2023-05-15T11:28:23.982Z,13.40
2023-05-15T11:32:41.250Z,13.50
2023-05-15T11:36:46.920Z,13.60
2023-05-15T11:40:55.156Z,13.30
2023-05-15T11:44:58.706Z,13.00
2023-05-15T11:49:09.552Z,12.50
2023-05-15T11:53:15.267Z,12.10
2023-05-15T11:57:22.016Z,12.10
2023-05-15T12:01:25.706Z,12.30
2023-05-15T12:05:29.244Z,12.60
2023-05-15T12:09:34.164Z,12.80
2023-05-15T12:13:38.879Z,12.60
2023-05-15T12:17:43.323Z,12.80
2023-05-15T12:21:48.022Z,13.20
2023-05-15T12:25:58.840Z,13.60
2023-05-15T12:30:04.339Z,13.90
2023-05-15T12:34:09.142Z,14.30
2023-05-15T12:38:17.098Z,14.20
2023-05-15T12:42:22.321Z,14.00
2023-05-15T12:46:27.505Z,13.90
2023-05-15T12:50:34.492Z,13.70
2023-05-15T12:54:42.089Z,13.60
2023-05-15T12:58:47.151Z,13.30
2023-05-15T13:02:52.317Z,13.20
2023-05-15T13:06:56.179Z,13.00
2023-05-15T13:11:01.317Z,12.90
2023-05-15T13:15:07.319Z,12.70
2023-05-15T13:19:11.778Z,12.50
2023-05-15T13:23:16.608Z,12.50
2023-05-15T13:27:20.114Z,12.80
2023-05-15T13:31:25.348Z,13.10
2023-05-15T13:35:28.997Z,13.50
2023-05-15T13:39:34.621Z,13.80
2023-05-15T13:43:38.098Z,14.00
2023-05-15T13:47:43.255Z,14.30
2023-05-15T13:51:46.752Z,14.60
2023-05-15T13:55:52.372Z,14.70
2023-05-15T13:59:56.011Z,15.00
2023-05-15T14:04:02.230Z,15.10
2023-05-15T14:08:07.392Z,14.90
2023-05-15T14:12:11.541Z,14.60
2023-05-15T14:16:15.447Z,14.20
2023-05-15T14:20:20.472Z,14.20
2023-05-15T14:24:25.167Z,14.20
2023-05-15T14:28:28.656Z,14.20
2023-05-15T14:32:32.278Z,14.50
2023-05-15T14:36:37.206Z,14.80
2023-05-15T14:40:42.616Z,14.90
2023-05-15T14:44:46.148Z,15.00
2023-05-15T14:48:49.684Z,15.10
2023-05-15T14:52:54.743Z,15.10
2023-05-15T14:56:58.479Z,15.20
2023-05-15T15:01:02.241Z,14.80
2023-05-15T15:05:06.513Z,14.80
2023-05-15T15:09:11.469Z,14.40
2023-05-15T15:13:17.064Z,14.30
2023-05-15T15:17:20.556Z,14.10
2023-05-15T15:21:24.074Z,14.00
2023-05-15T15:25:30.765Z,13.90
2023-05-15T15:29:35.732Z,14.00
2023-05-15T15:33:39.633Z,14.10
2023-05-15T15:37:43.417Z,14.50
2023-05-15T15:41:48.774Z,14.70
2023-05-15T15:45:52.275Z,14.90
2023-05-15T15:49:57.824Z,15.20
2023-05-15T15:54:01.345Z,15.40
2023-05-15T15:58:06.430Z,15.50
2023-05-15T16:02:11.485Z,15.50
2023-05-15T16:06:15.094Z,15.70
2023-05-15T16:10:18.581Z,15.80
2023-05-15T16:14:24.266Z,15.80
2023-05-15T16:18:27.721Z,15.90
2023-05-15T16:22:31.422Z,15.70
2023-05-15T16:26:34.991Z,15.30
2023-05-15T16:30:48.935Z,15.00
2023-05-15T16:34:53.226Z,14.90
2023-05-15T16:38:57.935Z,14.90
2023-05-15T16:43:01.393Z,14.80
2023-05-15T16:47:09.886Z,14.60
2023-05-15T16:51:13.426Z,14.50
2023-05-15T16:55:20.268Z,14.30
2023-05-15T16:59:23.756Z,14.20
2023-05-15T17:03:28.900Z,14.20
2023-05-15T17:07:34.008Z,14.10
2023-05-15T17:11:37.539Z,14.10
2023-05-15T17:15:41.386Z,14.00
2023-05-15T17:19:46.384Z,13.90
2023-05-15T17:23:52.164Z,13.80
2023-05-15T17:27:55.656Z,13.80
2023-05-15T17:31:59.854Z,13.60
2023-05-15T17:36:05.247Z,13.50
2023-05-15T17:40:09.803Z,13.40
2023-05-15T17:44:13.343Z,13.20
2023-05-15T17:48:17.962Z,13.10
2023-05-15T17:52:22.836Z,13.00
2023-05-15T17:56:26.858Z,12.90
2023-05-15T18:00:30.389Z,12.80
2023-05-15T18:04:35.094Z,12.70
2023-05-15T18:08:40.044Z,12.60
2023-05-15T18:12:43.763Z,12.40
2023-05-15T18:16:47.193Z,12.30
2023-05-15T18:20:51.774Z,12.20
2023-05-15T18:24:56.625Z,12.10
2023-05-15T18:29:01.208Z,12.00
2023-05-15T18:33:04.742Z,11.90
2023-05-15T18:37:08.401Z,11.80
2023-05-15T18:41:13.329Z,11.70
2023-05-15T18:45:17.395Z,11.60
2023-05-15T18:49:21.524Z,11.50
2023-05-15T18:53:24.933Z,11.50
2023-05-15T18:57:29.820Z,11.40
2023-05-15T19:01:33.334Z,11.30
2023-05-15T19:05:36.937Z,11.20
2023-05-15T19:09:40.505Z,11.20
2023-05-15T19:13:45.445Z,11.10
2023-05-15T19:17:49.083Z,11.00
2023-05-15T19:21:53.349Z,11.00
2023-05-15T19:25:56.889Z,10.90
2023-05-15T19:30:02.317Z,10.90
2023-05-15T19:34:06.017Z,10.80
2023-05-15T19:38:09.462Z,10.80
2023-05-15T19:42:13.217Z,10.70
2023-05-15T19:46:18.615Z,10.70
2023-05-15T19:50:23.470Z,10.60
2023-05-15T19:54:27.010Z,10.60
2023-05-15T19:58:30.693Z,10.50
2023-05-15T20:02:35.776Z,10.50
2023-05-15T20:06:39.274Z,10.40
2023-05-15T20:10:42.945Z,10.40
2023-05-15T20:14:50.322Z,10.30
2023-05-15T20:18:57.437Z,10.30
2023-05-15T20:23:00.944Z,10.30
2023-05-15T20:27:06.782Z,10.20
2023-05-15T20:31:10.226Z,10.20
2023-05-15T20:35:17.010Z,10.20
2023-05-15T20:39:21.508Z,10.10
2023-05-15T20:43:25.273Z,10.00
2023-05-15T20:47:28.915Z,10.00
2023-05-15T20:51:33.836Z,10.00
2023-05-15T20:55:37.552Z,10.00
2023-05-15T20:59:41.150Z,10.00
2023-05-15T21:03:44.944Z,9.90
2023-05-15T21:07:50.126Z,9.90
2023-05-15T21:11:53.690Z,9.90
2023-05-15T21:15:57.367Z,9.80
2023-05-15T21:20:02.169Z,9.70
2023-05-15T21:24:07.951Z,9.70
2023-05-15T21:28:11.874Z,9.70
2023-05-15T21:32:15.559Z,9.60
2023-05-15T21:36:19.079Z,9.50
2023-05-15T21:40:24.227Z,9.50
2023-05-15T21:44:27.980Z,9.40
2023-05-15T21:48:32.674Z,9.40
2023-05-15T21:52:36.185Z,9.30
2023-05-15T21:56:41.356Z,9.20
2023-05-15T22:00:44.848Z,9.20
2023-05-15T22:04:48.291Z,9.20
2023-05-15T22:08:51.796Z,9.20
2023-05-15T22:12:59.127Z,9.20
2023-05-15T22:17:02.656Z,9.20
2023-05-15T22:21:07.447Z,9.20
2023-05-15T22:25:11.510Z,9.20
2023-05-15T22:29:16.444Z,9.20
2023-05-15T22:33:24.248Z,9.20
2023-05-15T22:37:27.948Z,9.10
2023-05-15T22:41:31.490Z,9.10
2023-05-15T22:45:36.563Z,9.10
2023-05-15T22:49:39.996Z,9.00
2023-05-15T22:53:43.546Z,9.00
2023-05-15T22:57:49.113Z,9.00
2023-05-15T23:01:54.086Z,9.00
2023-05-15T23:05:57.734Z,8.90
2023-05-15T23:10:01.378Z,8.90
2023-05-15T23:14:04.986Z,8.90
2023-05-15T23:18:10.020Z,8.90
2023-05-15T23:22:13.547Z,8.90
2023-05-15T23:26:17.032Z,8.80
2023-05-15T23:30:20.608Z,8.80
2023-05-15T23:34:25.608Z,8.70
2023-05-15T23:38:29.118Z,8.70
2023-05-15T23:42:33.723Z,8.70
2023-05-15T23:46:39.074Z,8.70
2023-05-15T23:50:43.988Z,8.70
2023-05-15T23:54:48.592Z,8.70
2023-05-15T23:58:51.991Z,8.70
